Brem, Washington
Current Conditions -  °F | °C
As of 1:55 AM on Friday 28 Nov 2014 (Local Time) from KPWT Reporting Station
Overcast Overcast  
Wind Chill: 52°   Ceiling: 400
Heat Index: 52°   Visibility: 10mi
Dew Point: 50°   Wind: 13mph
Humidity: 94%   Direction: 170°S
Pressure: 29.64"   Gusts: 25mph
Location:  47.5691°N, 122.818°W
Report Text: KPWT 280955Z AUTO 17011G22KT 10SM BKN004 OVC012 11/10 A2964 RMK AO1 P0006
Loading
Personal Weather Stations






























Interactive Weather Map New forecast layout! Learn more

10-Day Weather Forecast

Advertisements
Track Severe Weather on mobile